Time;durP1;ratioP1;P1;durP2;ratioP2;P2;SDS_P1;SDS_P2;PMS_P1;PMS_P2;Temp;Humidity;BMP_temperature;BMP_pressure;BME280_temperature;BME280_humidity;BME280_pressure;Samples;Min_cycle;Max_cycle;Signal;HPM_P1;HPM_P2
2023/08/14 00:01:29;;;;;;;2.70;2.60;;;;;;;19.14;59.58;63980.03;5068157;28;20205;-78
2023/08/14 00:03:56;;;;;;;3.20;3.00;;;;;;;19.40;58.42;64009.25;5069364;28;20221;-79
2023/08/14 00:06:23;;;;;;;3.08;2.92;;;;;;;19.51;57.46;64023.84;5075685;28;20477;-79
2023/08/14 00:08:50;;;;;;;5.00;2.95;;;;;;;19.51;57.30;64020.72;5065141;28;20213;-79
2023/08/14 00:11:19;;;;;;;2.92;2.50;;;;;;;19.54;57.42;64023.84;5066856;28;20200;-80
2023/08/14 00:13:53;;;;;;;3.00;2.55;;;;;;;19.53;56.41;64018.16;5067770;28;20219;-80
2023/08/14 00:16:20;;;;;;;3.17;2.97;;;;;;;19.61;56.66;64028.56;5064796;28;20188;-78
2023/08/14 00:18:47;;;;;;;2.83;2.63;;;;;;;19.55;56.31;64019.72;5068543;28;20288;-78
2023/08/14 00:21:15;;;;;;;2.50;2.40;;;;;;;19.60;54.63;64024.41;5066327;28;20238;-77
2023/08/14 00:23:42;;;;;;;4.13;2.42;;;;;;;19.65;53.54;64030.16;5057958;28;20276;-79
2023/08/14 00:26:12;;;;;;;2.63;2.53;;;;;;;19.77;52.90;64040.09;5063391;28;20295;-78
2023/08/14 00:28:41;;;;;;;2.60;2.40;;;;;;;19.76;53.25;64043.69;5065779;28;20263;-78
2023/08/14 00:31:08;;;;;;;4.50;2.65;;;;;;;19.77;52.07;64047.31;5064838;28;20213;-78
2023/08/14 00:33:35;;;;;;;2.58;2.38;;;;;;;19.91;51.74;64061.94;5068180;28;20217;-77
2023/08/14 00:36:02;;;;;;;2.55;2.45;;;;;;;19.95;51.70;64064.03;5069167;28;20204;-80
2023/08/14 00:38:29;;;;;;;2.72;2.53;;;;;;;19.86;52.53;64054.13;5066062;28;20221;-79
2023/08/14 00:40:57;;;;;;;2.05;2.05;;;;;;;19.82;52.47;64049.94;5066959;28;20229;-78
2023/08/14 00:43:24;;;;;;;2.97;2.15;;;;;;;19.76;52.86;64046.28;5071546;28;20315;-79
2023/08/14 00:45:56;;;;;;;2.70;2.50;;;;;;;19.71;52.67;64038.47;5066468;28;20213;-80
2023/08/14 00:48:24;;;;;;;2.67;2.58;;;;;;;19.69;53.28;64034.31;5067459;28;20296;-80
2023/08/14 00:50:52;;;;;;;2.78;2.67;;;;;;;19.64;53.43;64031.19;5066478;28;20208;-78
2023/08/14 00:53:19;;;;;;;2.10;2.00;;;;;;;19.59;53.32;64025.97;5066419;28;20224;-80
2023/08/14 00:55:47;;;;;;;3.28;2.72;;;;;;;19.59;53.79;64029.06;5068358;28;20279;-79
2023/08/14 00:58:15;;;;;;;2.63;2.53;;;;;;;19.52;54.31;64019.69;5069173;28;20228;-79
2023/08/14 01:00:42;;;;;;;2.22;2.13;;;;;;;19.50;54.11;64014.50;5063623;28;20231;-78
2023/08/14 01:03:12;;;;;;;2.97;2.78;;;;;;;19.46;54.25;64013.44;5062966;28;20224;-79
2023/08/14 01:05:39;;;;;;;4.20;2.92;;;;;;;19.50;54.63;64017.09;5067225;28;20588;-79
2023/08/14 01:08:06;;;;;;;2.67;2.55;;;;;;;19.38;54.95;64004.56;5067058;28;20525;-78
2023/08/14 01:10:46;;;;;;;2.78;2.15;;;;;;;19.28;54.78;63997.22;5064729;28;20244;-78
2023/08/14 01:13:25;;;;;;;3.95;2.88;;;;;;;19.33;55.77;64002.47;5077108;28;20222;-78
2023/08/14 01:15:58;;;;;;;3.28;2.75;;;;;;;19.33;56.34;64001.94;5066656;28;20223;-79
2023/08/14 01:18:30;;;;;;;2.88;2.53;;;;;;;19.28;56.00;63994.13;5066583;28;20220;-79
2023/08/14 01:21:10;;;;;;;2.53;2.42;;;;;;;19.25;55.60;63993.59;5065429;28;20240;-78
2023/08/14 01:23:49;;;;;;;4.93;2.47;;;;;;;19.24;54.95;63987.38;5058280;28;20224;-80
2023/08/14 01:26:18;;;;;;;3.25;2.30;;;;;;;19.23;54.99;63986.31;5067015;28;20424;-77
2023/08/14 01:28:46;;;;;;;2.30;2.20;;;;;;;19.30;55.49;63999.34;5070269;28;20334;-80
2023/08/14 01:31:13;;;;;;;3.00;2.47;;;;;;;19.27;55.64;63998.78;5074192;28;20269;-77
2023/08/14 01:33:40;;;;;;;3.00;2.80;;;;;;;19.24;55.34;63985.31;5066253;28;20216;-78
2023/08/14 01:36:17;;;;;;;4.70;2.67;;;;;;;19.29;55.08;63998.25;5063264;28;20540;-79
2023/08/14 01:38:52;;;;;;;3.22;3.03;;;;;;;19.20;55.56;63988.91;5071028;28;20291;-78
2023/08/14 01:41:27;;;;;;;2.38;2.28;;;;;;;19.28;55.73;63994.13;5074518;28;20243;-79
2023/08/14 01:43:59;;;;;;;3.35;2.92;;;;;;;19.18;56.53;63986.81;5070316;28;20258;-77
2023/08/14 01:46:27;;;;;;;3.92;3.63;;;;;;;19.14;56.90;63980.03;5073190;28;20642;-77
2023/08/14 01:48:57;;;;;;;4.15;3.60;;;;;;;18.99;57.53;63964.41;5078166;28;20224;-78
2023/08/14 01:51:25;;;;;;;4.68;4.25;;;;;;;18.95;57.93;63959.72;5072770;28;20201;-79
2023/08/14 01:53:52;;;;;;;3.67;3.47;;;;;;;18.88;58.85;63955.53;5069955;28;20227;-77
2023/08/14 01:56:21;;;;;;;2.88;2.67;;;;;;;18.84;58.06;63950.84;5070533;28;20211;-78
2023/08/14 01:58:48;;;;;;;5.00;4.60;;;;;;;18.84;58.20;63948.25;5081494;28;20251;-76
2023/08/14 02:01:15;;;;;;;4.55;4.13;;;;;;;18.77;58.55;63943.53;5080448;28;20238;-79
2023/08/14 02:03:42;;;;;;;4.20;3.88;;;;;;;18.70;59.24;63934.19;5069333;28;20539;-77
2023/08/14 02:06:09;;;;;;;3.85;3.53;;;;;;;18.65;59.49;63928.44;5070022;28;20219;-79
2023/08/14 02:08:36;;;;;;;3.50;3.30;;;;;;;18.71;59.54;63937.81;5069556;28;20216;-78
2023/08/14 02:11:10;;;;;;;3.15;2.83;;;;;;;18.67;58.93;63930.53;5068344;28;20201;-78
2023/08/14 02:13:38;;;;;;;3.45;3.10;;;;;;;18.68;58.90;63936.72;5070150;28;20236;-78
2023/08/14 02:16:06;;;;;;;3.10;2.40;;;;;;;18.70;58.77;63928.50;5073036;28;20493;-79
2023/08/14 02:18:33;;;;;;;2.60;2.40;;;;;;;18.67;59.31;63931.06;5090246;28;20216;-78
2023/08/14 02:21:01;;;;;;;3.08;2.80;;;;;;;18.66;59.50;63929.47;5084609;28;20228;-77
2023/08/14 02:23:28;;;;;;;3.20;2.90;;;;;;;18.74;58.63;63940.94;5076812;28;20338;-79
2023/08/14 02:25:55;;;;;;;2.60;2.50;;;;;;;18.86;58.13;63950.84;5070942;28;20200;-77
2023/08/14 02:28:23;;;;;;;2.78;2.58;;;;;;;18.96;57.63;63960.75;5069894;28;20228;-79
2023/08/14 02:30:51;;;;;;;2.70;2.47;;;;;;;18.96;57.86;63955.59;5066232;28;20220;-79
2023/08/14 02:33:19;;;;;;;3.40;3.10;;;;;;;19.05;57.92;63970.16;5069434;28;20228;-79
2023/08/14 02:35:46;;;;;;;2.25;2.15;;;;;;;19.09;57.81;63972.25;5077055;28;20207;-79
2023/08/14 02:38:13;;;;;;;2.67;2.47;;;;;;;19.18;56.32;63983.69;5068536;28;20240;-80
2023/08/14 02:40:40;;;;;;;2.63;2.42;;;;;;;19.32;55.91;64000.91;5073809;28;20244;-78
2023/08/14 02:43:07;;;;;;;2.80;2.60;;;;;;;19.38;56.02;63999.41;5080977;28;20227;-79
2023/08/14 02:45:34;;;;;;;2.95;2.67;;;;;;;19.34;56.57;64000.41;5082225;28;20192;-79
2023/08/14 02:48:03;;;;;;;2.90;2.65;;;;;;;19.29;56.95;63993.09;5073206;28;20229;-78
2023/08/14 02:50:30;;;;;;;2.50;2.40;;;;;;;19.33;56.00;63999.34;5074210;28;20513;-79
2023/08/14 02:52:57;;;;;;;2.95;2.80;;;;;;;19.28;56.97;63996.69;5069223;28;20232;-78
2023/08/14 02:55:25;;;;;;;2.92;2.60;;;;;;;19.25;57.16;63988.41;5067939;28;20228;-79
2023/08/14 02:57:52;;;;;;;2.67;2.13;;;;;;;19.21;57.49;63986.81;5073338;28;20202;-78
2023/08/14 03:00:20;;;;;;;3.05;2.47;;;;;;;19.23;57.20;63991.50;5070825;28;20238;-79
2023/08/14 03:02:47;;;;;;;2.45;2.35;;;;;;;19.17;57.04;63990.91;5070286;28;20200;-81
2023/08/14 03:05:19;;;;;;;2.65;2.42;;;;;;;19.12;57.12;63980.53;5067493;28;20197;-79
2023/08/14 03:07:46;;;;;;;2.90;2.60;;;;;;;19.11;57.32;63973.81;5080088;28;20223;-78
2023/08/14 03:10:13;;;;;;;3.08;2.88;;;;;;;19.11;57.60;63978.97;5073289;28;20227;-78
2023/08/14 03:12:40;;;;;;;3.13;2.92;;;;;;;19.10;57.07;63977.94;5071491;28;20283;-79
2023/08/14 03:15:08;;;;;;;3.25;2.95;;;;;;;19.06;57.86;63971.72;5067117;28;20375;-79
2023/08/14 03:17:36;;;;;;;2.97;2.65;;;;;;;19.08;58.09;63973.81;5068076;28;20204;-79
2023/08/14 03:20:04;;;;;;;3.38;3.03;;;;;;;19.09;58.41;63977.41;5069777;28;20208;-80
2023/08/14 03:22:33;;;;;;;2.78;2.67;;;;;;;19.01;59.16;63960.81;5068824;28;20219;-78
2023/08/14 03:25:00;;;;;;;3.40;3.15;;;;;;;19.01;59.20;63963.41;5062586;28;20220;-79
2023/08/14 03:27:27;;;;;;;2.85;2.60;;;;;;;18.97;59.08;63964.91;5080317;28;20205;-79
2023/08/14 03:29:54;;;;;;;3.65;2.70;;;;;;;18.93;59.61;63955.56;5073521;28;20220;-78
2023/08/14 03:32:22;;;;;;;3.08;2.88;;;;;;;18.89;59.58;63954.00;5065548;28;20197;-78
2023/08/14 03:34:49;;;;;;;2.58;2.42;;;;;;;18.53;64.16;63916.47;5062001;28;20216;-77
2023/08/14 03:37:17;;;;;;;3.20;3.00;;;;;;;17.97;66.97;63861.19;5068177;28;20212;-80
2023/08/14 03:39:46;;;;;;;3.35;3.15;;;;;;;17.90;68.24;63853.38;5067894;28;20212;-80
2023/08/14 03:42:13;;;;;;;3.40;3.10;;;;;;;17.73;68.88;63836.19;5069312;28;20240;-80
2023/08/14 03:44:40;;;;;;;3.20;2.97;;;;;;;17.65;70.08;63822.72;5065460;28;20209;-78
2023/08/14 03:47:07;;;;;;;3.20;2.95;;;;;;;17.65;70.40;63825.31;5064404;28;20197;-78
2023/08/14 03:49:34;;;;;;;4.45;3.00;;;;;;;17.68;70.47;63831.00;5065295;28;20263;-77
2023/08/14 03:52:01;;;;;;;4.85;3.40;;;;;;;17.65;70.81;63819.63;5064326;28;20260;-79
2023/08/14 03:54:28;;;;;;;3.28;3.10;;;;;;;17.66;70.84;63823.75;5067733;28;20224;-80
2023/08/14 03:56:57;;;;;;;3.60;3.03;;;;;;;17.59;71.75;63816.47;5070860;28;20232;-78
2023/08/14 03:59:24;;;;;;;3.10;2.92;;;;;;;17.65;73.85;63827.88;5068194;28;20240;-80
2023/08/14 04:01:51;;;;;;;3.55;3.35;;;;;;;17.69;73.74;63832.03;5075589;28;20243;-80
2023/08/14 04:04:18;;;;;;;3.88;3.47;;;;;;;17.77;73.07;63835.22;5072726;28;20240;-80
2023/08/14 04:06:47;;;;;;;4.90;3.95;;;;;;;17.79;72.83;63837.28;5071658;28;20204;-80
2023/08/14 04:09:15;;;;;;;3.00;2.80;;;;;;;17.89;72.41;63852.34;5065808;28;20216;-79
2023/08/14 04:11:42;;;;;;;3.17;2.88;;;;;;;17.93;71.99;63856.53;5068282;28;20494;-81
2023/08/14 04:14:12;;;;;;;3.78;3.22;;;;;;;17.99;71.01;63860.19;5082437;28;20315;-80
2023/08/14 04:16:45;;;;;;;5.78;3.60;;;;;;;18.04;70.80;63862.81;5071132;28;20209;-79
2023/08/14 04:19:14;;;;;;;3.67;3.25;;;;;;;18.15;75.65;63882.00;5061832;28;20221;-78
2023/08/14 04:21:42;;;;;;;3.72;3.42;;;;;;;18.03;75.20;63864.34;5061206;28;20296;-78
2023/08/14 04:24:09;;;;;;;3.78;3.58;;;;;;;17.99;75.47;63862.75;5072688;28;20233;-77
2023/08/14 04:26:38;;;;;;;3.88;3.47;;;;;;;18.06;74.51;63870.06;5066725;28;20201;-79
2023/08/14 04:29:06;;;;;;;4.15;3.85;;;;;;;18.05;71.41;63866.44;5063200;28;20217;-78
2023/08/14 04:31:35;;;;;;;3.70;3.40;;;;;;;18.10;73.50;63871.66;5071950;28;20219;-77
2023/08/14 04:34:02;;;;;;;4.60;4.30;;;;;;;18.01;73.99;63859.69;5064664;28;20288;-77
2023/08/14 04:36:30;;;;;;;6.25;3.70;;;;;;;17.91;74.50;63849.28;5060968;28;20201;-77
2023/08/14 04:38:57;;;;;;;5.95;4.50;;;;;;;17.74;76.47;63834.66;5053803;28;20545;-78
2023/08/14 04:41:26;;;;;;;6.93;4.63;;;;;;;17.73;76.81;63838.25;5065367;28;20239;-78
2023/08/14 04:43:53;;;;;;;9.43;4.57;;;;;;;17.77;76.48;63835.22;5067158;28;20221;-78
2023/08/14 04:46:30;;;;;;;9.18;4.95;;;;;;;17.91;77.28;63852.34;5062225;28;20197;-78
2023/08/14 04:48:58;;;;;;;6.13;4.82;;;;;;;18.03;78.32;63864.88;5056954;28;20545;-78
2023/08/14 04:51:26;;;;;;;7.88;4.30;;;;;;;18.06;79.31;63870.06;5066783;28;20192;-78
2023/08/14 04:53:54;;;;;;;4.68;4.22;;;;;;;18.26;78.18;63890.88;5064517;28;20220;-79
2023/08/14 04:56:21;;;;;;;6.03;4.00;;;;;;;18.47;78.65;63912.78;5069119;28;20208;-80
2023/08/14 04:58:48;;;;;;;8.60;4.10;;;;;;;18.65;78.09;63923.28;5072465;28;20524;-80
2023/08/14 05:01:16;;;;;;;4.80;4.50;;;;;;;18.77;75.73;63940.97;5082190;28;20235;-78
2023/08/14 05:03:43;;;;;;;6.57;4.18;;;;;;;18.79;75.27;63945.63;5056561;28;20398;-78
2023/08/14 05:06:13;;;;;;;4.57;4.18;;;;;;;18.98;74.94;63962.84;5069581;28;20207;-78
2023/08/14 05:08:40;;;;;;;4.10;3.80;;;;;;;19.07;74.12;63972.75;5070280;28;20224;-79
2023/08/14 05:11:07;;;;;;;4.25;3.95;;;;;;;19.27;74.71;63993.09;5065490;28;20200;-80
2023/08/14 05:13:34;;;;;;;5.05;4.45;;;;;;;19.43;72.15;64009.81;5071285;28;20381;-79
2023/08/14 05:16:02;;;;;;;5.35;4.25;;;;;;;19.34;70.76;64003.00;5070801;28;20204;-77
2023/08/14 05:18:29;;;;;;;9.98;4.90;;;;;;;19.26;72.17;63989.97;5068723;28;20437;-78
2023/08/14 05:20:56;;;;;;;4.60;4.03;;;;;;;19.26;71.65;63992.03;5057936;28;20252;-79
2023/08/14 05:23:25;;;;;;;4.43;4.00;;;;;;;19.24;71.49;63989.97;5065575;28;20548;-79
2023/08/14 05:25:52;;;;;;;5.13;4.32;;;;;;;19.38;70.31;64004.56;5072506;28;20298;-77
2023/08/14 05:28:19;;;;;;;4.80;3.92;;;;;;;19.53;70.28;64022.81;5078159;28;20223;-79
2023/08/14 05:30:46;;;;;;;3.92;3.63;;;;;;;19.62;68.62;64029.09;5071560;28;20231;-79
2023/08/14 05:33:14;;;;;;;5.65;3.72;;;;;;;19.77;68.35;64042.16;5072295;28;20217;-80
2023/08/14 05:35:41;;;;;;;4.20;3.25;;;;;;;19.98;67.46;64069.75;5070350;28;20216;-76
2023/08/14 05:38:08;;;;;;;3.78;3.13;;;;;;;20.02;67.80;64071.31;5071952;28;20221;-78
2023/08/14 05:40:37;;;;;;;3.38;3.15;;;;;;;20.07;67.52;64073.97;5070232;28;20236;-79
2023/08/14 05:43:06;;;;;;;3.13;3.00;;;;;;;20.14;67.20;64091.09;5073893;28;20279;-78
2023/08/14 05:45:33;;;;;;;4.10;3.90;;;;;;;20.39;67.06;64109.44;5072278;28;20200;-78
2023/08/14 05:48:02;;;;;;;3.60;3.30;;;;;;;20.63;64.78;64142.25;5072063;28;20243;-78
2023/08/14 05:50:29;;;;;;;4.05;3.70;;;;;;;20.70;64.88;64141.81;5073117;28;20208;-79
2023/08/14 05:52:59;;;;;;;3.67;3.47;;;;;;;20.94;63.75;64174.09;5087379;28;20253;-79
2023/08/14 05:55:27;;;;;;;3.38;3.17;;;;;;;21.15;62.54;64191.41;5072310;28;20264;-79
2023/08/14 05:57:56;;;;;;;3.50;3.20;;;;;;;21.32;62.43;64206.03;5071657;28;20260;-78
2023/08/14 06:00:24;;;;;;;2.90;2.80;;;;;;;21.49;60.12;64226.91;5072676;28;20197;-79
2023/08/14 06:02:52;;;;;;;4.80;3.28;;;;;;;21.52;60.97;64226.91;5080575;28;20273;-79
2023/08/14 06:05:20;;;;;;;3.35;3.15;;;;;;;21.51;58.77;64220.69;5073926;28;20492;-77
2023/08/14 06:07:48;;;;;;;3.20;3.00;;;;;;;21.60;59.89;64233.22;5076257;28;20209;-78
2023/08/14 06:10:16;;;;;;;3.42;3.22;;;;;;;21.56;59.17;64231.63;5069113;28;20243;-78
2023/08/14 06:12:44;;;;;;;3.67;3.40;;;;;;;21.50;59.62;64224.84;5080458;28;20330;-77
2023/08/14 06:15:13;;;;;;;2.67;2.58;;;;;;;21.51;60.11;64226.41;5068612;28;20215;-79
2023/08/14 06:17:41;;;;;;;3.53;3.22;;;;;;;21.76;59.13;64252.53;5069775;28;20486;-80
2023/08/14 06:20:11;;;;;;;3.17;2.97;;;;;;;21.92;60.45;64268.22;5069502;28;20276;-79
2023/08/14 06:22:40;;;;;;;3.40;3.00;;;;;;;22.19;57.64;64288.66;5069116;28;20247;-78
2023/08/14 06:25:09;;;;;;;3.95;2.95;;;;;;;22.47;56.72;64328.28;5070866;28;20221;-79
2023/08/14 06:27:36;;;;;;;4.30;2.78;;;;;;;22.54;52.23;64333.56;5071296;28;20205;-77
2023/08/14 06:30:05;;;;;;;2.78;2.63;;;;;;;22.52;53.31;64333.53;5072510;28;20201;-78
2023/08/14 06:32:33;;;;;;;2.53;2.42;;;;;;;22.59;53.34;64335.69;5068906;28;20207;-79
2023/08/14 06:35:00;;;;;;;2.88;2.30;;;;;;;22.63;52.62;64345.03;5072128;28;20288;-78
2023/08/14 06:37:28;;;;;;;2.72;2.42;;;;;;;22.89;50.79;64369.63;5072651;28;20219;-78
2023/08/14 06:39:54;;;;;;;2.38;2.17;;;;;;;23.03;50.62;64386.88;5078951;28;20279;-77
2023/08/14 06:42:22;;;;;;;3.33;2.83;;;;;;;23.07;50.55;64391.06;5068842;28;20230;-79
2023/08/14 06:44:49;;;;;;;2.70;2.60;;;;;;;23.14;50.38;64395.25;5073469;28;20232;-78
2023/08/14 06:47:16;;;;;;;2.45;2.33;;;;;;;23.24;50.08;64403.66;5080687;28;20485;-79
2023/08/14 06:49:45;;;;;;;3.03;2.92;;;;;;;23.26;50.52;64410.41;5068866;28;20217;-79
2023/08/14 06:52:13;;;;;;;3.10;2.88;;;;;;;23.25;50.37;64409.34;5066032;28;20247;-78
2023/08/14 06:54:41;;;;;;;2.85;2.65;;;;;;;23.36;49.35;64424.03;5074913;28;20212;-80
2023/08/14 06:57:09;;;;;;;3.17;2.97;;;;;;;23.52;48.89;64430.34;5075078;28;20268;-79
2023/08/14 06:59:36;;;;;;;2.63;2.50;;;;;;;23.51;47.70;64431.38;5055876;28;20291;-79
2023/08/14 07:02:03;;;;;;;3.72;2.83;;;;;;;23.63;48.72;64449.66;5075026;28;20239;-80
2023/08/14 07:04:30;;;;;;;2.67;2.40;;;;;;;23.83;48.27;64465.38;5075058;28;20235;-80
2023/08/14 07:06:58;;;;;;;3.25;2.97;;;;;;;24.06;46.33;64488.94;5083421;28;20213;-80
2023/08/14 07:09:26;;;;;;;2.25;2.15;;;;;;;24.21;44.92;64507.28;5072481;28;20259;-79
2023/08/14 07:11:53;;;;;;;3.35;3.03;;;;;;;24.31;43.25;64517.22;5077808;28;20381;-79
2023/08/14 07:14:20;;;;;;;2.67;2.47;;;;;;;24.27;44.74;64513.53;5070670;28;20232;-80
2023/08/14 07:16:48;;;;;;;2.55;2.33;;;;;;;24.43;44.86;64534.97;5067316;28;20221;-79
2023/08/14 07:19:17;;;;;;;6.03;2.80;;;;;;;24.55;44.40;64542.34;5059600;28;20287;-79
2023/08/14 07:21:45;;;;;;;2.88;2.47;;;;;;;24.59;45.17;64543.94;5069308;28;20240;-79
2023/08/14 07:24:13;;;;;;;2.85;2.75;;;;;;;24.59;44.10;64546.53;5070006;28;20251;-80
2023/08/14 07:26:41;;;;;;;3.25;2.90;;;;;;;24.54;43.80;64543.91;5068464;28;20562;-79
2023/08/14 07:29:08;;;;;;;3.10;2.90;;;;;;;24.49;44.57;64536.06;5076936;28;20233;-78
2023/08/14 07:31:35;;;;;;;2.22;2.13;;;;;;;24.58;44.59;64542.88;5075951;28;20201;-79
2023/08/14 07:34:02;;;;;;;2.63;2.50;;;;;;;24.72;44.74;64560.69;5070645;28;20224;-79
2023/08/14 07:36:29;;;;;;;4.75;2.55;;;;;;;24.87;42.99;64573.25;5068170;28;20209;-78
2023/08/14 07:38:56;;;;;;;3.00;2.67;;;;;;;24.71;44.58;64564.31;5068591;28;20331;-77
2023/08/14 07:41:26;;;;;;;2.97;2.80;;;;;;;24.39;43.96;64528.19;5073282;28;20209;-78
2023/08/14 07:43:53;;;;;;;2.85;2.65;;;;;;;24.41;45.05;64525.06;5071185;28;20403;-79
2023/08/14 07:46:20;;;;;;;3.38;3.17;;;;;;;24.54;45.08;64543.91;5074656;28;20200;-79
2023/08/14 07:48:47;;;;;;;2.90;2.70;;;;;;;24.60;45.97;64550.16;5079350;28;20232;-79
2023/08/14 07:51:15;;;;;;;3.17;2.92;;;;;;;24.85;45.06;64576.38;5055394;28;20231;-79
2023/08/14 07:53:42;;;;;;;9.48;4.45;;;;;;;25.00;45.63;64592.09;5066812;28;20228;-80
2023/08/14 07:56:09;;;;;;;3.70;3.05;;;;;;;25.32;44.24;64625.06;5060427;28;20220;-79
2023/08/14 07:58:39;;;;;;;3.33;3.03;;;;;;;25.45;43.39;64631.44;5079538;28;20274;-80
2023/08/14 08:01:06;;;;;;;3.63;2.72;;;;;;;25.78;43.98;64676.44;5066677;28;20197;-79
2023/08/14 08:03:34;;;;;;;5.72;3.15;;;;;;;25.89;44.53;64682.75;5068751;28;20278;-79
2023/08/14 08:06:01;;;;;;;3.05;2.85;;;;;;;26.28;44.68;64722.59;5069844;28;20235;-79
2023/08/14 08:08:29;;;;;;;2.97;2.88;;;;;;;26.53;42.51;64749.34;5076800;28;20239;-79
2023/08/14 08:10:56;;;;;;;2.80;2.60;;;;;;;26.83;42.72;64783.44;5062305;28;20197;-79
2023/08/14 08:13:23;;;;;;;2.78;2.60;;;;;;;27.06;40.70;64804.44;5069821;28;20302;-79
2023/08/14 08:15:52;;;;;;;2.95;2.75;;;;;;;27.51;39.43;64859.00;5088120;28;20208;-78
2023/08/14 08:18:19;;;;;;;3.20;2.72;;;;;;;26.76;41.34;64772.97;5080811;28;20243;-79
2023/08/14 08:20:46;;;;;;;3.58;2.92;;;;;;;26.75;40.92;64775.03;5064856;28;20231;-79
2023/08/14 08:23:13;;;;;;;3.95;2.80;;;;;;;27.11;42.00;64812.28;5073538;28;20240;-79
2023/08/14 08:25:41;;;;;;;3.05;2.70;;;;;;;27.33;40.53;64830.16;5070125;28;20200;-79
2023/08/14 08:28:09;;;;;;;3.40;3.20;;;;;;;27.44;39.83;64844.31;5077810;28;20220;-80
2023/08/14 08:30:36;;;;;;;3.58;2.85;;;;;;;27.15;40.61;64816.47;5067271;28;20201;-79
2023/08/14 08:33:05;;;;;;;2.95;2.78;;;;;;;26.67;40.48;64768.75;5080400;28;20224;-79
2023/08/14 08:35:32;;;;;;;3.38;3.17;;;;;;;26.18;41.83;64712.63;5062655;28;20372;-79
2023/08/14 08:38:00;;;;;;;2.92;2.83;;;;;;;25.83;41.75;64678.56;5066735;28;20451;-80
2023/08/14 08:40:28;;;;;;;3.75;3.10;;;;;;;25.73;41.96;64671.19;5067261;28;20200;-78
2023/08/14 08:42:57;;;;;;;3.97;3.58;;;;;;;25.49;42.72;64640.31;5070569;28;20230;-78
2023/08/14 08:45:28;;;;;;;3.42;3.22;;;;;;;25.66;43.92;64660.75;5065933;28;20196;-80
2023/08/14 08:47:57;;;;;;;3.35;3.05;;;;;;;25.66;43.14;64661.25;5064754;28;20213;-78
2023/08/14 08:50:27;;;;;;;3.25;3.15;;;;;;;25.81;42.08;64671.22;5074323;28;20207;-78
2023/08/14 08:52:55;;;;;;;2.88;2.67;;;;;;;25.81;43.69;64671.22;5076263;28;20215;-79
2023/08/14 08:55:22;;;;;;;3.25;3.05;;;;;;;25.94;43.55;64687.47;5064854;28;20543;-78
2023/08/14 08:57:50;;;;;;;3.33;3.03;;;;;;;26.05;42.76;64701.63;5075357;28;20215;-81
2023/08/14 09:00:17;;;;;;;2.90;2.70;;;;;;;26.19;41.84;64716.31;5075251;28;20208;-79
2023/08/14 09:02:45;;;;;;;3.03;2.85;;;;;;;26.33;41.52;64728.38;5066234;28;20247;-78
2023/08/14 09:05:12;;;;;;;3.38;2.85;;;;;;;26.15;41.43;64707.41;5066974;28;20260;-80
2023/08/14 09:07:43;;;;;;;3.03;2.83;;;;;;;26.15;41.54;64710.03;5067811;28;20196;-81
2023/08/14 09:10:10;;;;;;;5.65;2.92;;;;;;;26.26;42.07;64720.50;5064079;28;20196;-78
2023/08/14 09:12:37;;;;;;;3.22;3.03;;;;;;;25.86;40.88;64684.84;5064786;28;20204;-77
2023/08/14 09:15:06;;;;;;;3.15;2.47;;;;;;;25.74;40.29;64666.50;5058438;28;20197;-77
2023/08/14 09:17:34;;;;;;;4.70;3.10;;;;;;;25.71;41.38;64663.38;5046503;28;20201;-81
2023/08/14 09:20:02;;;;;;;3.83;3.60;;;;;;;25.64;42.56;64658.63;5085724;28;20220;-80
2023/08/14 09:22:30;;;;;;;6.18;3.65;;;;;;;25.76;40.93;64669.13;5074036;28;20295;-78
2023/08/14 09:24:59;;;;;;;3.33;3.10;;;;;;;25.93;42.31;64689.03;5085635;28;20279;-79
2023/08/14 09:27:27;;;;;;;3.05;2.67;;;;;;;25.94;40.92;64690.59;5055556;28;20393;-80
2023/08/14 09:29:56;;;;;;;3.38;2.65;;;;;;;26.04;39.70;64701.09;5067349;28;20223;-79
2023/08/14 09:32:25;;;;;;;2.45;2.35;;;;;;;26.13;40.31;64713.16;5073730;28;20211;-79
2023/08/14 09:34:58;;;;;;;2.97;2.58;;;;;;;26.14;41.25;64711.56;5073408;28;20235;-78
2023/08/14 09:37:26;;;;;;;2.67;2.58;;;;;;;26.15;40.93;64712.63;5064545;28;20200;-78
2023/08/14 09:40:09;;;;;;;2.67;2.58;;;;;;;26.34;40.82;64731.50;5065826;28;20247;-80
2023/08/14 09:42:37;;;;;;;3.13;2.55;;;;;;;26.44;40.14;64742.50;5067626;28;20243;-81
2023/08/14 09:45:05;;;;;;;2.75;2.55;;;;;;;26.42;38.66;64742.50;5066760;28;20223;-78
2023/08/14 09:47:33;;;;;;;3.25;2.95;;;;;;;26.52;39.34;64747.78;5064670;28;20205;-78
2023/08/14 09:50:00;;;;;;;2.78;2.65;;;;;;;26.79;40.38;64776.09;5067541;28;20287;-80
2023/08/14 09:52:27;;;;;;;2.65;2.55;;;;;;;26.98;39.54;64801.25;5068017;28;20219;-78
2023/08/14 09:54:55;;;;;;;4.45;2.75;;;;;;;27.01;39.39;64799.16;5067695;28;20431;-82
2023/08/14 09:57:24;;;;;;;2.90;2.70;;;;;;;27.11;37.94;64807.06;5072383;28;20196;-79
2023/08/14 09:59:52;;;;;;;2.85;2.50;;;;;;;27.04;38.10;64805.47;5071967;28;20258;-78
2023/08/14 10:02:23;;;;;;;3.13;2.92;;;;;;;26.83;37.97;64788.66;5073273;28;20224;-79
2023/08/14 10:04:51;;;;;;;2.83;2.60;;;;;;;26.83;37.73;64780.84;5073524;28;20404;-77
2023/08/14 10:07:20;;;;;;;3.28;2.38;;;;;;;26.35;39.41;64735.16;5071393;28;20201;-78
2023/08/14 10:09:51;;;;;;;3.03;2.72;;;;;;;26.25;39.18;64722.06;5079628;28;20212;-79
2023/08/14 10:12:22;;;;;;;2.72;2.35;;;;;;;26.42;39.06;64743.03;5089873;28;20272;-79
2023/08/14 10:14:59;;;;;;;4.60;3.65;;;;;;;26.63;40.69;64764.53;5074229;28;20219;-79
2023/08/14 10:17:31;;;;;;;2.50;2.40;;;;;;;26.79;40.61;64776.63;5075994;28;20429;-79
2023/08/14 10:20:03;;;;;;;3.15;2.90;;;;;;;26.82;40.78;64779.78;5072177;28;20221;-79
2023/08/14 10:22:32;;;;;;;2.42;2.33;;;;;;;26.70;38.82;64769.28;5067711;28;20270;-80
2023/08/14 10:25:03;;;;;;;3.35;3.15;;;;;;;26.73;39.80;64767.19;5069269;28;20239;-79
2023/08/14 10:27:31;;;;;;;3.40;3.10;;;;;;;26.54;39.77;64749.88;5071919;28;20246;-79
2023/08/14 10:30:00;;;;;;;3.70;3.33;;;;;;;26.95;40.09;64795.50;5064475;28;20229;-79
2023/08/14 10:32:28;;;;;;;2.90;2.72;;;;;;;27.36;39.43;64835.91;5067808;28;20232;-81
2023/08/14 10:34:56;;;;;;;3.08;2.90;;;;;;;27.85;40.98;64884.19;5070165;28;20371;-80
2023/08/14 10:37:27;;;;;;;4.18;3.28;;;;;;;28.17;40.50;64923.03;5076155;28;20451;-79
2023/08/14 10:39:58;;;;;;;3.75;3.25;;;;;;;28.41;38.21;64950.84;5079460;28;20227;-79
2023/08/14 10:42:25;;;;;;;3.33;3.13;;;;;;;28.57;36.86;64965.06;5070053;28;20300;-80
2023/08/14 10:44:53;;;;;;;3.15;2.88;;;;;;;28.45;37.33;64952.44;5069432;28;20224;-81
2023/08/14 10:47:21;;;;;;;6.00;3.03;;;;;;;28.11;37.94;64916.75;5072625;28;20205;-80
2023/08/14 10:49:51;;;;;;;3.33;3.15;;;;;;;27.93;39.00;64895.75;5060177;28;20284;-79
2023/08/14 10:52:20;;;;;;;3.28;2.97;;;;;;;28.24;39.58;64930.38;5070602;28;20210;-78
2023/08/14 10:54:51;;;;;;;2.85;2.65;;;;;;;27.86;37.22;64885.78;5073292;28;20257;-78
2023/08/14 10:57:27;;;;;;;3.40;3.10;;;;;;;28.08;37.15;64916.72;5077744;28;20280;-78
2023/08/14 10:59:58;;;;;;;3.85;3.55;;;;;;;28.31;38.87;64937.75;5062045;28;20224;-78
2023/08/14 11:02:29;;;;;;;2.78;2.60;;;;;;;28.75;39.66;64981.34;5069251;28;20204;-79
2023/08/14 11:05:00;;;;;;;2.90;2.80;;;;;;;28.82;38.69;64990.81;5076751;28;20244;-80
2023/08/14 11:07:29;;;;;;;2.45;2.35;;;;;;;29.08;38.65;65020.75;5068905;28;20212;-79
2023/08/14 11:09:58;;;;;;;2.88;2.78;;;;;;;29.21;37.91;65029.16;5064029;28;20204;-80
2023/08/14 11:12:27;;;;;;;2.88;2.78;;;;;;;29.41;37.61;65052.78;5058704;28;20228;-79
2023/08/14 11:14:56;;;;;;;2.80;2.63;;;;;;;28.86;35.93;64995.53;5059507;28;20223;-80
2023/08/14 11:17:24;;;;;;;3.15;2.75;;;;;;;28.91;37.12;64995.53;5059478;28;20204;-80
2023/08/14 11:19:54;;;;;;;3.42;3.20;;;;;;;28.78;36.55;64983.97;5061685;28;20224;-81
2023/08/14 11:22:22;;;;;;;2.75;2.65;;;;;;;28.89;36.53;64998.16;5063326;28;20205;-81
2023/08/14 11:24:50;;;;;;;3.17;2.70;;;;;;;29.00;36.61;65009.69;5071526;28;20219;-82
2023/08/14 11:27:17;;;;;;;2.88;2.67;;;;;;;29.10;36.91;65020.22;5069206;28;20231;-80
2023/08/14 11:29:48;;;;;;;2.78;2.60;;;;;;;29.15;37.08;65025.47;5070242;28;20216;-79
2023/08/14 11:32:16;;;;;;;3.13;2.85;;;;;;;29.10;36.79;65017.59;5056481;28;20204;-79
2023/08/14 11:34:43;;;;;;;2.70;2.60;;;;;;;29.06;36.98;65016.00;5070210;28;20225;-81
2023/08/14 11:37:12;;;;;;;4.95;2.85;;;;;;;28.72;37.66;64983.44;5073890;28;20505;-80
2023/08/14 11:39:40;;;;;;;3.67;3.10;;;;;;;28.87;38.69;65001.31;5070376;28;20216;-79